Time;durP1;ratioP1;P1;durP2;ratioP2;P2;SDS_P1;SDS_P2;PMS_P1;PMS_P2;Temp;Humidity;BMP_temperature;BMP_pressure;BME280_temperature;BME280_humidity;BME280_pressure;Samples;Min_cycle;Max_cycle;Signal;HPM_P1;HPM_P2
2021/03/12 00:00:47;;;;;;;13.05;2.72;;;;;;;6.62;71.00;100390.69;5093961;28;20028;-41
2021/03/12 00:03:15;;;;;;;10.57;2.65;;;;;;;6.61;70.70;100395.22;5094394;28;20032;-41
2021/03/12 00:05:43;;;;;;;9.43;2.00;;;;;;;6.60;70.97;100390.91;5093941;28;20030;-41
2021/03/12 00:08:09;;;;;;;10.68;2.42;;;;;;;6.61;70.69;100407.84;5094147;28;20131;-41
2021/03/12 00:10:34;;;;;;;10.93;2.20;;;;;;;6.62;70.86;100404.09;5094611;28;20160;-40
2021/03/12 00:13:00;;;;;;;9.40;2.27;;;;;;;6.59;70.70;100410.75;5093883;28;20035;-40
2021/03/12 00:15:25;;;;;;;9.13;2.33;;;;;;;6.59;71.05;100404.56;5093725;28;20028;-41
2021/03/12 00:17:51;;;;;;;8.05;2.20;;;;;;;6.60;70.50;100403.50;5094230;28;20032;-41
2021/03/12 00:20:25;;;;;;;9.90;2.53;;;;;;;6.64;70.39;100418.16;5094069;28;20031;-41
2021/03/12 00:22:52;;;;;;;11.63;2.67;;;;;;;6.63;70.40;100422.69;5093315;28;20498;-41
2021/03/12 00:25:25;;;;;;;13.95;2.80;;;;;;;6.60;70.36;100430.38;5093851;28;20031;-41
2021/03/12 00:27:50;;;;;;;8.48;2.13;;;;;;;6.61;69.96;100442.78;5093238;28;20039;-41
2021/03/12 00:30:16;;;;;;;6.07;2.03;;;;;;;6.60;70.52;100441.94;5093890;28;20457;-40
2021/03/12 00:32:42;;;;;;;16.63;2.78;;;;;;;6.58;70.81;100449.38;5093710;28;20127;-41
2021/03/12 00:35:08;;;;;;;8.90;2.30;;;;;;;6.58;69.90;100456.63;5096031;28;20031;-41
2021/03/12 00:37:35;;;;;;;9.65;2.30;;;;;;;6.61;70.14;100469.63;5097368;28;20373;-40
2021/03/12 00:40:05;;;;;;;6.18;2.30;;;;;;;6.57;70.34;100471.91;5097947;28;20089;-41
2021/03/12 00:42:30;;;;;;;9.25;2.13;;;;;;;6.54;70.09;100463.44;5097883;28;20091;-41
2021/03/12 00:44:56;;;;;;;10.77;2.27;;;;;;;6.55;70.09;100484.75;5097719;28;20081;-40
2021/03/12 00:47:21;;;;;;;6.90;2.03;;;;;;;6.56;69.44;100499.00;5097545;28;20028;-40
2021/03/12 00:49:46;;;;;;;9.40;2.10;;;;;;;6.52;69.07;100490.53;5097337;28;20027;-40
2021/03/12 00:52:12;;;;;;;8.80;2.10;;;;;;;6.51;69.51;100501.50;5097591;28;20039;-40
2021/03/12 00:54:37;;;;;;;9.43;2.70;;;;;;;6.50;69.55;100500.69;5096252;28;20033;-41
2021/03/12 00:57:03;;;;;;;5.47;2.23;;;;;;;6.48;70.14;100504.59;5097640;28;20111;-40
2021/03/12 00:59:28;;;;;;;7.40;2.20;;;;;;;6.45;70.26;100511.25;5097743;28;20028;-40
2021/03/12 01:01:53;;;;;;;6.07;1.90;;;;;;;6.42;69.52;100507.09;5097292;28;20031;-40
2021/03/12 01:04:18;;;;;;;10.47;2.10;;;;;;;6.41;69.89;100524.25;5097050;28;20035;-40
2021/03/12 01:06:44;;;;;;;10.33;2.47;;;;;;;6.42;69.26;100525.91;5096882;28;20051;-40
2021/03/12 01:09:09;;;;;;;9.97;1.77;;;;;;;6.42;69.74;100531.28;5097789;28;20062;-40
2021/03/12 01:11:35;;;;;;;7.80;2.00;;;;;;;6.41;69.49;100534.19;5096840;28;20125;-40
2021/03/12 01:14:00;;;;;;;9.45;2.25;;;;;;;6.41;69.74;100536.88;5097235;28;20024;-40
2021/03/12 01:16:26;;;;;;;13.10;2.42;;;;;;;6.40;69.38;100540.59;5097027;28;20024;-40
2021/03/12 01:18:51;;;;;;;8.77;2.20;;;;;;;6.37;69.30;100541.84;5097291;28;20032;-40
2021/03/12 01:21:17;;;;;;;9.75;2.50;;;;;;;6.34;69.89;100544.94;5097293;28;20035;-40
2021/03/12 01:23:42;;;;;;;10.30;1.55;;;;;;;6.32;69.97;100546.19;5097298;28;20034;-40
2021/03/12 01:26:08;;;;;;;8.80;2.07;;;;;;;6.35;69.65;100553.84;5096765;28;20559;-40
2021/03/12 01:28:33;;;;;;;8.30;3.00;;;;;;;6.35;69.77;100556.53;5096440;28;20045;-40
2021/03/12 01:30:58;;;;;;;9.07;2.47;;;;;;;6.34;68.99;100549.47;5096525;28;20024;-40
2021/03/12 01:33:24;;;;;;;16.73;3.57;;;;;;;6.32;69.71;100544.31;5097328;28;20073;-40
2021/03/12 01:35:49;;;;;;;9.37;2.17;;;;;;;6.32;69.44;100549.69;5096604;28;20093;-40
2021/03/12 01:38:15;;;;;;;8.40;2.03;;;;;;;6.30;69.76;100551.78;5097208;28;20031;-40
2021/03/12 01:40:45;;;;;;;10.53;1.90;;;;;;;6.27;70.22;100557.56;5096578;28;20020;-40
2021/03/12 01:43:11;;;;;;;8.70;1.90;;;;;;;6.28;69.25;100561.06;5097083;28;20059;-40
2021/03/12 01:45:44;;;;;;;7.90;2.40;;;;;;;6.28;68.71;100561.88;5096191;28;20123;-40
2021/03/12 01:48:15;;;;;;;7.63;2.20;;;;;;;6.24;69.88;100557.97;5096301;28;20285;-40
2021/03/12 01:50:45;;;;;;;8.00;2.47;;;;;;;6.25;69.17;100564.19;5096378;28;20031;-40
2021/03/12 01:53:11;;;;;;;12.32;2.53;;;;;;;6.22;69.50;100572.66;5095930;28;20051;-40
2021/03/12 01:55:37;;;;;;;11.75;2.53;;;;;;;6.18;69.75;100570.38;5096578;28;20081;-40
2021/03/12 01:58:03;;;;;;;9.15;2.42;;;;;;;6.19;70.43;100576.56;5097007;28;20110;-40
2021/03/12 02:00:29;;;;;;;11.50;2.50;;;;;;;6.17;70.16;100575.97;5096241;28;20056;-41
2021/03/12 02:02:56;;;;;;;8.07;2.33;;;;;;;6.17;70.16;100584.00;5095874;28;20024;-40
2021/03/12 02:05:22;;;;;;;9.52;2.67;;;;;;;6.13;70.39;100585.47;5095605;28;20240;-40
2021/03/12 02:07:47;;;;;;;9.53;2.03;;;;;;;6.10;70.46;100591.22;5096245;28;20552;-40
2021/03/12 02:10:16;;;;;;;8.37;2.37;;;;;;;6.09;70.79;100594.94;5095331;28;20107;-40
2021/03/12 02:13:05;;;;;;;11.50;2.75;;;;;;;6.05;70.35;100591.03;5096022;28;20298;-40
2021/03/12 02:15:52;;;;;;;7.43;1.75;;;;;;;6.04;70.08;100584.84;5095930;28;20024;-40
2021/03/12 02:18:22;;;;;;;9.85;1.88;;;;;;;5.99;70.69;100587.31;5095578;28;20495;-40
2021/03/12 02:20:52;;;;;;;8.20;2.13;;;;;;;6.00;70.84;100596.19;5095538;28;20392;-40
2021/03/12 02:23:23;;;;;;;10.18;2.10;;;;;;;5.97;70.85;100596.63;5095373;28;20080;-40
2021/03/12 02:26:00;;;;;;;13.07;3.20;;;;;;;5.93;71.43;100610.44;5096003;28;20353;-40
2021/03/12 02:28:27;;;;;;;9.52;2.45;;;;;;;5.88;71.60;100610.22;5096136;28;20036;-40
2021/03/12 02:30:53;;;;;;;10.15;2.20;;;;;;;5.87;71.11;100600.50;5095539;28;20028;-40
2021/03/12 02:33:22;;;;;;;5.90;1.85;;;;;;;5.86;71.63;100614.97;5095115;28;20503;-40
2021/03/12 02:35:54;;;;;;;10.25;2.13;;;;;;;5.81;71.61;100609.41;5095692;28;20103;-40
2021/03/12 02:38:22;;;;;;;7.35;2.08;;;;;;;5.74;71.57;100605.88;5094945;28;20063;-40
2021/03/12 02:40:48;;;;;;;8.57;2.97;;;;;;;5.75;71.81;100618.25;5095627;28;20529;-41
2021/03/12 02:43:15;;;;;;;6.68;2.30;;;;;;;5.73;71.78;100620.31;5095299;28;20376;-40
2021/03/12 02:45:42;;;;;;;12.23;2.17;;;;;;;5.69;72.27;100629.81;5095567;28;20036;-40
2021/03/12 02:48:08;;;;;;;7.95;2.05;;;;;;;5.68;72.15;100634.34;5095461;28;20027;-40
2021/03/12 02:50:34;;;;;;;14.02;2.70;;;;;;;5.69;71.70;100629.81;5094880;28;20034;-40
2021/03/12 02:53:01;;;;;;;9.77;2.35;;;;;;;5.66;72.08;100624.81;5095038;28;20028;-40
2021/03/12 02:55:26;;;;;;;;;;;;;;;5.67;72.16;100632.69;5095810;28;20063;-40
2021/03/12 02:57:52;;;;;;;14.23;2.45;;;;;;;5.58;71.74;100625.03;5094873;28;20276;-40
2021/03/12 03:00:18;;;;;;;11.13;3.30;;;;;;;5.55;72.34;100633.47;5095811;28;20032;-40
2021/03/12 03:02:44;;;;;;;10.98;2.20;;;;;;;5.48;72.26;100630.81;5095189;28;20031;-41
2021/03/12 03:05:10;;;;;;;9.07;2.47;;;;;;;5.47;72.41;100645.25;5095228;28;20490;-40
2021/03/12 03:07:37;;;;;;;14.55;2.75;;;;;;;5.39;72.47;100646.25;5093064;28;20473;-40
2021/03/12 03:10:07;;;;;;;11.45;2.25;;;;;;;5.39;73.12;100656.97;5094589;28;20032;-40
2021/03/12 03:12:33;;;;;;;11.32;2.70;;;;;;;5.36;72.76;100651.16;5094328;28;20475;-41
2021/03/12 03:15:01;;;;;;;13.20;3.10;;;;;;;5.34;72.81;100656.75;5094549;28;20373;-40
2021/03/12 03:17:29;;;;;;;8.65;1.83;;;;;;;5.31;73.07;100656.31;5095438;28;20131;-41
2021/03/12 03:19:55;;;;;;;11.65;2.10;;;;;;;5.29;73.46;100661.06;5094810;28;20457;-41
2021/03/12 03:22:21;;;;;;;8.93;2.15;;;;;;;5.22;73.81;100650.31;5094571;28;20028;-41
2021/03/12 03:24:47;;;;;;;9.48;2.42;;;;;;;5.22;73.49;100669.09;5095165;28;20103;-41
2021/03/12 03:27:13;;;;;;;9.43;2.05;;;;;;;5.18;73.42;100657.09;5094537;28;20052;-40
2021/03/12 03:29:39;;;;;;;8.65;2.00;;;;;;;5.13;73.47;100663.06;5095311;28;20512;-40
2021/03/12 03:32:06;;;;;;;14.85;2.90;;;;;;;5.08;74.19;100664.69;5094650;28;20069;-40
2021/03/12 03:34:31;;;;;;;12.75;3.53;;;;;;;5.06;73.70;100659.50;5094599;28;20096;-40
2021/03/12 03:36:57;;;;;;;13.33;2.87;;;;;;;5.05;73.96;100659.72;5094383;28;20028;-40
2021/03/12 03:39:22;;;;;;;9.20;2.27;;;;;;;5.03;73.93;100667.97;5094574;28;20032;-40
2021/03/12 03:41:51;;;;;;;10.60;2.30;;;;;;;5.00;73.97;100665.69;5094495;28;20024;-40
2021/03/12 03:44:21;;;;;;;17.00;3.45;;;;;;;4.96;74.03;100671.63;5094459;28;20099;-40
2021/03/12 03:46:48;;;;;;;15.10;2.60;;;;;;;4.94;74.41;100668.34;5094400;28;20024;-40
2021/03/12 03:49:16;;;;;;;9.82;2.78;;;;;;;4.90;74.32;100678.63;5093844;28;20028;-40
2021/03/12 03:51:43;;;;;;;7.68;2.55;;;;;;;4.87;74.62;100679.00;5093953;28;20093;-40
2021/03/12 03:54:12;;;;;;;10.48;2.58;;;;;;;4.80;74.92;100681.66;5093767;28;20111;-40
2021/03/12 03:56:38;;;;;;;9.85;2.20;;;;;;;4.80;74.76;100683.50;5094286;28;20456;-40
2021/03/12 03:59:04;;;;;;;7.55;1.60;;;;;;;4.78;74.89;100686.38;5094274;28;20103;-40
2021/03/12 04:01:30;;;;;;;;;;;;;;;4.81;74.81;100685.97;5094332;28;20365;-40
2021/03/12 04:03:55;;;;;;;8.13;2.10;;;;;;;4.70;74.96;100681.19;5093937;28;19915;-40
2021/03/12 04:06:22;;;;;;;11.57;2.43;;;;;;;4.71;74.63;100684.69;5093903;28;20115;-40
2021/03/12 04:08:47;;;;;;;;;;;;;;;4.74;74.60;100684.28;5093324;28;20468;-40
2021/03/12 04:11:14;;;;;;;11.70;3.00;;;;;;;4.67;75.09;100689.59;5093800;28;19951;-40
2021/03/12 04:13:39;;;;;;;;;;;;;;;4.71;74.89;100688.19;5094762;28;20035;-40
2021/03/12 04:16:06;;;;;;;12.15;2.63;;;;;;;4.62;75.35;100681.31;5094341;28;19912;-40
2021/03/12 04:18:31;;;;;;;12.05;2.95;;;;;;;4.61;75.55;100682.34;5093873;28;20093;-40
2021/03/12 04:20:58;;;;;;;12.82;2.50;;;;;;;4.58;75.88;100691.59;5094295;28;20028;-40
2021/03/12 04:23:24;;;;;;;7.97;2.47;;;;;;;4.54;75.73;100681.47;5093596;28;20080;-40
2021/03/12 04:25:50;;;;;;;10.63;2.45;;;;;;;4.52;75.40;100694.22;5093933;28;20115;-40
2021/03/12 04:28:16;;;;;;;13.10;3.05;;;;;;;4.50;75.42;100694.44;5093593;28;20032;-40
2021/03/12 04:30:42;;;;;;;16.40;2.88;;;;;;;4.49;75.73;100692.78;5093661;28;20497;-40
2021/03/12 04:33:09;;;;;;;9.48;2.40;;;;;;;4.47;75.95;100704.69;5093458;28;20053;-41
2021/03/12 04:35:35;;;;;;;13.95;2.90;;;;;;;4.45;76.03;100709.44;5094438;28;20023;-41
2021/03/12 04:38:01;;;;;;;10.80;2.47;;;;;;;4.44;75.98;100705.06;5093481;28;20024;-41
2021/03/12 04:40:27;;;;;;;10.95;2.70;;;;;;;4.42;76.32;100705.28;5093481;28;20032;-41
2021/03/12 04:42:52;;;;;;;13.43;3.10;;;;;;;4.37;75.96;100697.81;5093484;28;20032;-41
2021/03/12 04:45:19;;;;;;;15.98;3.53;;;;;;;4.38;76.11;100704.81;5093474;28;20035;-40
2021/03/12 04:47:44;;;;;;;;;;;;;;;4.43;75.68;100709.59;5093808;28;20024;-40
2021/03/12 04:50:11;;;;;;;13.68;2.95;;;;;;;4.37;76.31;100710.38;5093390;28;20257;-40
2021/03/12 04:52:37;;;;;;;14.48;4.10;;;;;;;4.33;76.45;100709.94;5092128;28;20028;-41
2021/03/12 04:55:03;;;;;;;10.57;2.50;;;;;;;4.30;76.17;100715.69;5093864;28;20059;-41
2021/03/12 04:57:29;;;;;;;;;;;;;;;4.34;75.83;100706.25;5093429;28;20036;-40
2021/03/12 04:59:57;;;;;;;7.50;2.40;;;;;;;4.27;76.40;100699.19;5094107;28;19908;-41
2021/03/12 05:02:24;;;;;;;9.68;2.75;;;;;;;4.26;76.82;100709.06;5093120;28;20494;-41
2021/03/12 05:04:50;;;;;;;7.63;2.40;;;;;;;4.21;76.60;100711.50;5092984;28;20020;-41
2021/03/12 05:07:19;;;;;;;8.63;2.42;;;;;;;4.20;76.81;100714.34;5093280;28;20047;-41
2021/03/12 05:09:45;;;;;;;12.40;2.85;;;;;;;4.17;76.92;100712.91;5093211;28;20032;-40
2021/03/12 05:12:11;;;;;;;14.53;2.80;;;;;;;4.19;76.49;100710.84;5092274;28;20104;-41
2021/03/12 05:14:36;;;;;;;11.18;3.35;;;;;;;4.20;76.66;100714.34;5092775;28;20031;-41
2021/03/12 05:17:01;;;;;;;9.93;2.77;;;;;;;4.17;76.58;100712.06;5092843;28;20132;-41
2021/03/12 05:19:27;;;;;;;15.60;2.63;;;;;;;4.14;76.90;100721.28;5093770;28;20594;-41
2021/03/12 05:21:54;;;;;;;12.83;2.83;;;;;;;4.14;76.75;100715.94;5097130;28;20414;-41
2021/03/12 05:24:20;;;;;;;9.93;3.15;;;;;;;4.14;76.61;100710.59;5096837;28;20032;-41
2021/03/12 05:26:45;;;;;;;11.43;2.27;;;;;;;4.11;76.88;100717.16;5096795;28;20050;-41
2021/03/12 05:29:10;;;;;;;11.73;2.63;;;;;;;4.13;76.66;100720.47;5096608;28;20024;-40
2021/03/12 05:31:36;;;;;;;11.83;2.70;;;;;;;4.12;76.57;100718.00;5096730;28;20069;-41
2021/03/12 05:34:01;;;;;;;13.20;2.30;;;;;;;4.10;76.77;100722.72;5097519;28;20038;-40
2021/03/12 05:36:26;;;;;;;11.17;2.40;;;;;;;4.08;77.04;100717.53;5096917;28;20043;-41
2021/03/12 05:38:52;;;;;;;8.17;2.30;;;;;;;4.04;77.23;100720.78;5096912;28;20020;-41
2021/03/12 05:41:19;;;;;;;10.63;2.03;;;;;;;4.03;77.30;100716.47;5096484;28;20023;-41
2021/03/12 05:43:45;;;;;;;13.00;3.00;;;;;;;4.03;77.02;100711.94;5096770;28;20118;-41
2021/03/12 05:46:11;;;;;;;8.88;2.25;;;;;;;4.04;77.11;100715.44;5096799;28;20480;-41
2021/03/12 05:48:37;;;;;;;10.18;2.20;;;;;;;4.06;76.68;100721.44;5096487;28;20034;-41
2021/03/12 05:51:04;;;;;;;13.05;2.97;;;;;;;4.09;77.38;100718.38;5096610;28;20032;-41
2021/03/12 05:53:30;;;;;;;11.43;2.67;;;;;;;4.08;76.96;100716.72;5095910;28;20028;-41
2021/03/12 05:55:55;;;;;;;13.27;3.30;;;;;;;4.09;77.25;100718.38;5096241;28;20152;-41
2021/03/12 05:58:22;;;;;;;12.57;2.63;;;;;;;4.11;76.97;100724.38;5096180;28;20428;-41
2021/03/12 06:00:47;;;;;;;;;;;;;;;4.14;77.00;100713.25;5096702;28;20634;-41
2021/03/12 06:03:14;;;;;;;8.80;2.35;;;;;;;4.13;77.64;100716.97;5096049;28;20041;-40
2021/03/12 06:05:39;;;;;;;14.45;2.83;;;;;;;4.10;77.77;100706.66;5095741;28;20039;-41
2021/03/12 06:08:05;;;;;;;13.83;2.87;;;;;;;4.12;77.41;100715.31;5096243;28;20052;-41
2021/03/12 06:10:31;;;;;;;13.50;3.00;;;;;;;4.15;77.40;100717.63;5096568;28;20399;-40
2021/03/12 06:12:56;;;;;;;6.78;3.05;;;;;;;4.17;77.07;100715.56;5096163;28;20020;-41
2021/03/12 06:15:48;;;;;;;14.57;2.83;;;;;;;4.22;77.22;100723.84;5096188;28;20059;-41
2021/03/12 06:18:14;;;;;;;15.25;2.60;;;;;;;4.23;77.58;100720.16;5096153;28;20298;-40
2021/03/12 06:20:40;;;;;;;17.92;3.13;;;;;;;4.23;77.35;100717.47;5096071;28;20020;-41
2021/03/12 06:23:06;;;;;;;16.00;2.88;;;;;;;4.26;77.51;100708.25;5096512;28;20115;-40
2021/03/12 06:25:31;;;;;;;20.83;4.67;;;;;;;4.30;77.39;100720.22;5095960;28;20020;-41
2021/03/12 06:28:15;;;;;;;13.23;2.70;;;;;;;4.33;77.38;100720.66;5095942;28;20436;-41
2021/03/12 06:30:41;;;;;;;18.42;2.83;;;;;;;4.36;77.35;100722.13;5096204;28;20046;-41
2021/03/12 06:33:06;;;;;;;16.03;2.80;;;;;;;4.37;77.53;100721.91;5094077;28;20028;-41
2021/03/12 06:35:38;;;;;;;10.40;2.43;;;;;;;4.41;76.84;100727.72;5095509;28;20266;-41
2021/03/12 06:38:10;;;;;;;20.23;3.35;;;;;;;4.44;76.84;100719.31;5095172;28;20030;-40
2021/03/12 06:40:39;;;;;;;12.57;2.95;;;;;;;4.47;77.27;100720.75;5096211;28;20034;-41
2021/03/12 06:43:08;;;;;;;16.60;3.72;;;;;;;4.49;77.10;100729.41;5095315;28;20468;-40
2021/03/12 06:45:58;;;;;;;18.38;3.53;;;;;;;4.54;76.88;100726.97;5095603;28;20380;-40
2021/03/12 06:48:34;;;;;;;15.95;2.72;;;;;;;4.54;77.11;100732.34;5095475;28;20160;-41
2021/03/12 06:51:06;;;;;;;19.67;3.83;;;;;;;4.55;77.23;100715.28;5095091;28;20078;-41
2021/03/12 06:53:41;;;;;;;16.05;3.05;;;;;;;4.55;76.87;100729.50;5095351;28;20403;-41
2021/03/12 06:56:11;;;;;;;17.02;3.47;;;;;;;4.61;76.89;100725.19;5095107;28;20050;-41
2021/03/12 06:58:37;;;;;;;13.48;2.75;;;;;;;4.63;77.07;100723.13;5095636;28;20115;-41
2021/03/12 07:01:17;;;;;;;16.08;3.22;;;;;;;4.65;76.58;100718.44;5093802;28;20040;-41
2021/03/12 07:03:42;;;;;;;17.58;3.75;;;;;;;4.67;76.97;100715.56;5095065;28;20055;-41
2021/03/12 07:06:16;;;;;;;13.52;3.58;;;;;;;4.70;77.08;100716.00;5095385;28;20405;-41
2021/03/12 07:08:44;;;;;;;16.75;3.63;;;;;;;4.74;76.47;100721.81;5095013;28;20357;-41
2021/03/12 07:11:17;;;;;;;18.27;3.35;;;;;;;4.76;76.58;100720.56;5094640;28;20119;-41
2021/03/12 07:13:43;;;;;;;15.48;3.40;;;;;;;4.82;76.76;100729.66;5094572;28;20024;-41
2021/03/12 07:16:08;;;;;;;13.90;2.90;;;;;;;4.87;76.37;100721.88;5094924;28;20024;-41
2021/03/12 07:18:34;;;;;;;11.47;2.60;;;;;;;4.93;76.17;100725.59;5094601;28;20499;-42
2021/03/12 07:20:59;;;;;;;17.07;4.00;;;;;;;4.98;75.83;100724.00;5094533;28;20464;-42
2021/03/12 07:23:27;;;;;;;19.58;3.47;;;;;;;5.03;76.02;100736.81;5094670;28;20761;-42
2021/03/12 07:25:54;;;;;;;20.13;3.42;;;;;;;5.06;76.34;100725.69;5094832;28;20032;-42
2021/03/12 07:28:23;;;;;;;16.17;2.95;;;;;;;5.12;75.88;100732.94;5095075;28;20032;-42
2021/03/12 07:30:50;;;;;;;11.65;2.50;;;;;;;5.15;75.63;100728.00;5094528;28;20032;-42
2021/03/12 07:33:19;;;;;;;11.18;3.08;;;;;;;5.19;75.24;100724.94;5094589;28;20024;-42
2021/03/12 07:35:46;;;;;;;12.82;3.60;;;;;;;5.24;75.07;100723.31;5094600;28;20491;-40
2021/03/12 07:38:14;;;;;;;12.55;3.55;;;;;;;5.27;75.19;100722.94;5094549;28;20406;-41
2021/03/12 07:40:40;;;;;;;17.30;3.55;;;;;;;5.31;75.10;100717.97;5094915;28;20032;-41
2021/03/12 07:43:07;;;;;;;14.38;3.40;;;;;;;5.33;75.11;100716.75;5093776;28;20460;-41
2021/03/12 07:45:32;;;;;;;18.77;3.88;;;;;;;5.37;75.15;100720.72;5094443;28;20031;-41
2021/03/12 07:47:58;;;;;;;13.70;3.30;;;;;;;5.41;75.16;100713.91;5094525;28;20107;-41
2021/03/12 07:50:33;;;;;;;14.57;3.30;;;;;;;5.45;75.67;100722.38;5093150;28;20037;-41
2021/03/12 07:53:00;;;;;;;17.25;2.92;;;;;;;5.48;75.55;100719.31;5094029;28;20066;-41
2021/03/12 07:55:35;;;;;;;16.27;3.30;;;;;;;5.53;75.21;100727.56;5094907;28;20032;-41
2021/03/12 07:58:04;;;;;;;19.48;4.10;;;;;;;5.53;74.98;100722.22;5093982;28;20039;-41
2021/03/12 08:00:30;;;;;;;19.52;4.05;;;;;;;5.58;75.01;100708.19;5094267;28;20076;-41
2021/03/12 08:03:01;;;;;;;14.88;3.85;;;;;;;5.61;75.45;100705.94;5093224;28;20036;-41
2021/03/12 08:05:31;;;;;;;13.20;3.10;;;;;;;5.70;75.61;100714.63;5094496;28;20483;-41
2021/03/12 08:07:56;;;;;;;20.42;3.70;;;;;;;5.76;75.22;100705.78;5093773;28;20073;-41
2021/03/12 08:10:22;;;;;;;15.07;3.27;;;;;;;5.81;74.92;100686.38;5094198;28;20103;-41
2021/03/12 08:12:49;;;;;;;17.35;3.90;;;;;;;5.85;75.06;100706.41;5093628;28;20054;-41
2021/03/12 08:15:25;;;;;;;20.60;4.13;;;;;;;5.92;75.48;100704.59;5093418;28;20032;-41
2021/03/12 08:17:56;;;;;;;14.07;3.22;;;;;;;6.01;75.46;100700.69;5093885;28;20395;-41
2021/03/12 08:20:29;;;;;;;16.00;3.58;;;;;;;6.07;74.65;100697.19;5093399;28;20024;-41
2021/03/12 08:22:58;;;;;;;17.15;3.80;;;;;;;6.11;74.61;100703.81;5093596;28;20025;-40
2021/03/12 08:25:50;;;;;;;18.02;3.45;;;;;;;6.19;74.69;100710.81;5094252;28;20024;-41
2021/03/12 08:28:16;;;;;;;19.30;3.97;;;;;;;6.24;74.18;100713.72;5091563;28;20040;-41
2021/03/12 08:30:43;;;;;;;20.50;3.80;;;;;;;6.31;73.99;100706.50;5094420;28;20467;-41
2021/03/12 08:33:21;;;;;;;19.35;3.92;;;;;;;6.39;74.24;100711.69;5093421;28;20173;-41
2021/03/12 08:35:47;;;;;;;14.75;3.83;;;;;;;6.45;73.87;100710.84;5094069;28;20032;-41
2021/03/12 08:38:28;;;;;;;24.20;4.35;;;;;;;6.49;73.91;100719.31;5093468;28;20020;-41
2021/03/12 08:41:04;;;;;;;13.07;3.47;;;;;;;6.48;74.04;100700.69;5093474;28;20107;-41
2021/03/12 08:43:31;;;;;;;13.18;3.33;;;;;;;6.54;74.08;100705.22;5093492;28;20468;-41
2021/03/12 08:46:02;;;;;;;18.70;3.75;;;;;;;6.52;73.92;100712.69;5093697;28;20051;-41
2021/03/12 08:48:36;;;;;;;21.02;4.40;;;;;;;6.47;73.84;100696.38;5093417;28;20031;-41
2021/03/12 08:51:07;;;;;;;15.35;3.78;;;;;;;6.53;74.09;100700.91;5093434;28;20417;-41
2021/03/12 08:53:38;;;;;;;14.07;3.88;;;;;;;6.63;73.17;100698.63;5093735;28;20114;-41
2021/03/12 08:56:06;;;;;;;16.13;4.18;;;;;;;6.72;73.75;100695.50;5095417;28;20107;-41
2021/03/12 08:58:38;;;;;;;16.40;3.92;;;;;;;6.81;73.12;100696.13;5097022;28;20484;-41
2021/03/12 09:01:33;;;;;;;18.50;4.95;;;;;;;6.90;73.13;100697.56;5097316;28;20092;-41
2021/03/12 09:04:01;;;;;;;17.67;3.58;;;;;;;6.91;72.09;100699.19;5055257;28;20048;-41
2021/03/12 09:06:37;;;;;;;20.65;4.65;;;;;;;7.03;72.10;100701.22;5054960;28;20033;-42
2021/03/12 09:09:07;;;;;;;17.83;3.67;;;;;;;7.25;72.38;100678.41;5054989;28;20104;-41
2021/03/12 09:11:33;;;;;;;19.27;3.92;;;;;;;7.42;70.59;100682.28;5055088;28;20559;-41
2021/03/12 09:14:00;;;;;;;17.23;4.00;;;;;;;7.44;70.98;100666.72;5054484;28;20041;-41
2021/03/12 09:16:27;;;;;;;19.38;4.40;;;;;;;7.36;69.81;100666.97;5055065;28;20414;-41
2021/03/12 09:18:55;;;;;;;16.65;4.05;;;;;;;7.41;69.76;100669.84;5054604;28;20033;-41
2021/03/12 09:21:22;;;;;;;16.38;4.05;;;;;;;7.49;69.02;100664.22;5054687;28;20127;-41
2021/03/12 09:23:54;;;;;;;23.83;4.85;;;;;;;7.56;68.72;100666.03;5054190;28;20080;-41
2021/03/12 09:26:22;;;;;;;21.33;4.95;;;;;;;7.59;69.08;100671.00;5054669;28;20041;-42
2021/03/12 09:28:51;;;;;;;18.13;4.03;;;;;;;7.59;69.28;100662.94;5054279;28;20061;-41
2021/03/12 09:31:18;;;;;;;19.45;5.00;;;;;;;7.57;68.83;100662.34;5054490;28;20388;-41
2021/03/12 09:33:51;;;;;;;13.90;3.28;;;;;;;7.55;68.87;100672.47;5054297;28;20045;-41
2021/03/12 09:36:36;;;;;;;15.68;3.45;;;;;;;7.53;68.81;100672.69;5054361;28;20029;-41
2021/03/12 09:39:10;;;;;;;18.33;4.03;;;;;;;7.49;68.87;100658.84;5054344;28;20025;-42
2021/03/12 09:41:38;;;;;;;15.25;3.75;;;;;;;7.49;69.32;100647.25;5097176;28;20032;-42
2021/03/12 09:44:10;;;;;;;16.35;3.90;;;;;;;7.54;68.80;100654.69;5097099;28;20461;-41
2021/03/12 09:46:42;;;;;;;14.82;3.22;;;;;;;7.50;68.85;100656.97;5096803;28;20094;-41
2021/03/12 09:49:12;;;;;;;16.10;3.63;;;;;;;7.48;67.86;100645.63;5096241;28;20025;-41
2021/03/12 09:51:40;;;;;;;11.93;3.60;;;;;;;7.56;68.29;100641.81;5096966;28;20024;-40
2021/03/12 09:54:08;;;;;;;15.60;3.55;;;;;;;7.67;69.34;100643.84;5096791;28;20085;-41
2021/03/12 09:56:34;;;;;;;16.20;4.22;;;;;;;7.65;68.93;100635.97;5097152;28;20114;-41
2021/03/12 09:59:02;;;;;;;15.52;3.75;;;;;;;7.61;68.13;100634.78;5096276;28;20024;-41
2021/03/12 10:01:35;;;;;;;18.58;3.88;;;;;;;7.59;67.12;100642.22;5096589;28;20043;-42
2021/03/12 10:04:01;;;;;;;16.13;4.70;;;;;;;7.59;68.96;100631.47;5096822;28;20055;-42
2021/03/12 10:06:26;;;;;;;17.40;3.87;;;;;;;7.66;68.28;100637.66;5096099;28;20491;-42
2021/03/12 10:09:06;;;;;;;14.17;3.43;;;;;;;7.65;67.52;100632.47;5096270;28;20059;-41
2021/03/12 10:11:49;;;;;;;16.67;4.07;;;;;;;7.59;67.48;100634.16;5096068;28;20504;-42
2021/03/12 10:14:44;;;;;;;15.95;3.60;;;;;;;7.53;67.71;100637.72;5095897;28;20055;-41
2021/03/12 10:17:19;;;;;;;13.35;3.50;;;;;;;7.36;68.42;100632.00;5053667;28;20087;-41
2021/03/12 10:19:59;;;;;;;17.02;4.07;;;;;;;7.31;69.13;100637.19;5053843;28;20029;-41
2021/03/12 10:22:29;;;;;;;17.70;3.85;;;;;;;7.22;70.78;100628.56;5053443;28;20106;-42
2021/03/12 10:24:59;;;;;;;20.77;3.80;;;;;;;7.15;71.07;100630.44;5053138;28;20083;-42
2021/03/12 10:27:27;;;;;;;16.20;3.75;;;;;;;7.09;71.93;100620.56;5053599;28;20037;-41
2021/03/12 10:29:53;;;;;;;15.68;3.90;;;;;;;7.07;73.70;100611.88;5053144;28;20520;-41
2021/03/12 10:32:19;;;;;;;23.53;4.33;;;;;;;7.09;73.18;100615.19;5053574;28;20037;-41
2021/03/12 10:34:46;;;;;;;19.00;3.78;;;;;;;7.13;73.82;100613.72;5052985;28;20033;-41
2021/03/12 10:37:16;;;;;;;17.05;4.15;;;;;;;7.06;74.65;100604.84;5052907;28;20072;-41
2021/03/12 10:39:46;;;;;;;18.15;4.78;;;;;;;7.00;74.73;100607.56;5053636;28;20040;-41
2021/03/12 10:42:12;;;;;;;20.13;4.68;;;;;;;6.95;74.07;100611.72;5053105;28;20045;-41
2021/03/12 10:44:59;;;;;;;16.85;4.15;;;;;;;6.91;72.69;100602.41;5053139;28;20033;-41
2021/03/12 10:47:25;;;;;;;13.27;4.25;;;;;;;6.89;74.16;100603.69;5053340;28;20139;-41
2021/03/12 10:49:51;;;;;;;15.82;3.72;;;;;;;6.90;73.55;100606.16;5052691;28;20512;-41
2021/03/12 10:52:25;;;;;;;21.10;4.40;;;;;;;6.90;73.73;100603.47;5052900;28;20037;-42
2021/03/12 10:54:51;;;;;;;13.27;3.67;;;;;;;6.91;73.37;100591.66;5095925;28;20099;-41
2021/03/12 10:57:17;;;;;;;;;;;;;;;6.96;72.61;100594.53;5095607;28;20032;-41
2021/03/12 10:59:57;;;;;;;15.48;3.47;;;;;;;6.99;73.07;100585.25;5095769;28;19911;-41
2021/03/12 11:02:36;;;;;;;16.30;4.05;;;;;;;7.08;70.85;100578.59;5094762;28;20081;-41
2021/03/12 11:05:03;;;;;;;15.40;3.38;;;;;;;7.26;70.05;100583.22;5095053;28;20380;-41
2021/03/12 11:07:28;;;;;;;13.95;3.28;;;;;;;7.40;70.29;100563.28;5094895;28;20031;-41
2021/03/12 11:09:54;;;;;;;15.30;3.63;;;;;;;7.46;69.40;100562.41;5096103;28;20046;-41
2021/03/12 11:12:19;;;;;;;15.60;3.30;;;;;;;7.59;69.52;100555.28;5094838;28;20020;-41
2021/03/12 11:14:47;;;;;;;12.67;3.27;;;;;;;7.58;68.20;100551.78;5094771;28;20024;-41
2021/03/12 11:17:12;;;;;;;14.63;3.33;;;;;;;7.59;68.65;100548.03;5094399;28;20031;-41
2021/03/12 11:19:37;;;;;;;15.63;3.00;;;;;;;7.60;68.23;100560.44;5094460;28;20397;-41
2021/03/12 11:22:03;;;;;;;14.70;3.40;;;;;;;7.55;67.64;100554.06;5094907;28;20027;-41
2021/03/12 11:24:28;;;;;;;13.97;3.80;;;;;;;7.55;68.36;100551.38;5094728;28;20391;-41
2021/03/12 11:26:53;;;;;;;13.60;3.40;;;;;;;7.57;68.64;100549.31;5094800;28;20028;-41
2021/03/12 11:29:19;;;;;;;11.47;3.33;;;;;;;7.59;68.31;100539.97;5094559;28;20031;-41
2021/03/12 11:31:44;;;;;;;10.83;3.07;;;;;;;7.64;67.27;100542.81;5094762;28;20034;-41
2021/03/12 11:34:10;;;;;;;15.63;3.80;;;;;;;7.73;67.60;100540.69;5094694;28;20031;-41